Time;durP1;ratioP1;P1;durP2;ratioP2;P2;SDS_P1;SDS_P2;PMS_P1;PMS_P2;Temp;Humidity;BMP_temperature;BMP_pressure;BME280_temperature;BME280_humidity;BME280_pressure;Samples;Min_cycle;Max_cycle;Signal;HPM_P1;HPM_P2
2023/03/14 00:00:14;;;;;;;3.83;1.95;;;;;;;-1.41;54.00;99542.63;5051750;28;20033;-56
2023/03/14 00:02:40;;;;;;;5.05;2.20;;;;;;;-1.35;53.12;99529.25;5052388;28;20371;-54
2023/03/14 00:05:06;;;;;;;3.97;2.47;;;;;;;-1.30;53.59;99529.97;5050431;28;20037;-52
2023/03/14 00:07:37;;;;;;;5.90;2.70;;;;;;;-1.23;53.30;99526.19;5050783;28;20033;-51
2023/03/14 00:10:04;;;;;;;4.32;2.42;;;;;;;-1.30;53.70;99520.31;5051598;28;20057;-57
2023/03/14 00:12:31;;;;;;;6.72;3.00;;;;;;;-1.28;53.41;99517.63;5017577;28;20316;-57
2023/03/14 00:14:56;;;;;;;6.68;2.72;;;;;;;-1.19;53.32;99506.78;5044693;28;20068;-56
2023/03/14 00:17:22;;;;;;;5.93;2.85;;;;;;;-1.07;53.15;99499.38;5032087;28;20128;-58
2023/03/14 00:19:52;;;;;;;7.25;3.30;;;;;;;-1.07;53.13;99489.69;5044722;28;20151;-58
2023/03/14 00:22:17;;;;;;;6.10;3.55;;;;;;;-1.01;53.17;99492.09;5052137;28;20028;-56
2023/03/14 00:24:43;;;;;;;6.80;3.00;;;;;;;-0.98;53.27;99482.38;5051088;28;20028;-60
2023/03/14 00:27:08;;;;;;;7.30;2.90;;;;;;;-0.96;53.25;99475.31;5051113;28;20090;-59
2023/03/14 00:29:34;;;;;;;6.95;3.47;;;;;;;-0.93;53.31;99476.03;5051697;28;20104;-53
2023/03/14 00:31:59;;;;;;;8.70;2.90;;;;;;;-1.01;52.82;99457.91;5051612;28;20095;-59
2023/03/14 00:34:29;;;;;;;6.72;3.00;;;;;;;-1.08;53.32;99458.25;5029273;28;20029;-58
2023/03/14 00:36:54;;;;;;;6.07;3.03;;;;;;;-1.01;53.27;99457.91;5035701;28;20037;-56
2023/03/14 00:39:19;;;;;;;11.52;3.45;;;;;;;-1.01;53.57;99457.91;5018377;28;20494;-61
2023/03/14 00:41:45;;;;;;;9.38;3.10;;;;;;;-1.16;53.59;99421.75;5017857;28;20084;-58
2023/03/14 00:44:11;;;;;;;10.45;3.25;;;;;;;-0.92;53.49;99458.50;5038932;28;20036;-56
2023/03/14 00:46:36;;;;;;;5.90;2.72;;;;;;;-0.87;53.60;99472.31;5055821;28;20052;-53
2023/03/14 00:49:01;;;;;;;4.20;2.80;;;;;;;-0.75;53.13;99463.09;5055009;28;20071;-57
2023/03/14 00:51:27;;;;;;;7.85;3.15;;;;;;;-0.99;53.35;99439.47;5055570;28;20033;-58
2023/03/14 00:53:52;;;;;;;6.38;3.20;;;;;;;-0.95;54.00;99451.56;5054911;28;20158;-56
2023/03/14 00:56:18;;;;;;;5.50;2.78;;;;;;;-1.10;54.07;99418.00;5055528;28;20356;-50
2023/03/14 00:58:43;;;;;;;7.80;3.00;;;;;;;-0.85;54.29;99441.56;5055048;28;20444;-65
2023/03/14 01:01:18;;;;;;;6.22;2.70;;;;;;;-0.82;54.57;99432.72;5055511;28;20035;-57
2023/03/14 01:03:44;;;;;;;7.23;2.83;;;;;;;-0.80;55.08;99444.00;5055300;28;20078;-64
2023/03/14 01:06:12;;;;;;;6.10;3.05;;;;;;;-0.82;54.96;99451.94;5054452;28;20459;-59
2023/03/14 01:08:38;;;;;;;5.07;3.15;;;;;;;-0.83;55.03;99444.97;5053348;28;20418;-57
2023/03/14 01:11:08;;;;;;;6.47;3.05;;;;;;;-0.74;55.23;99438.50;5055303;28;20033;-56
2023/03/14 01:13:35;;;;;;;8.90;2.88;;;;;;;-0.68;55.13;99443.50;5054278;28;20043;-56
2023/03/14 01:16:02;;;;;;;7.68;3.10;;;;;;;-0.69;56.02;99441.78;5036604;28;20325;-57
2023/03/14 01:18:28;;;;;;;5.57;2.40;;;;;;;-0.86;55.47;99421.44;5041316;28;20108;-57
2023/03/14 01:20:53;;;;;;;7.05;3.03;;;;;;;-0.74;56.45;99434.09;5055543;28;20534;-54
2023/03/14 01:23:19;;;;;;;5.38;3.13;;;;;;;-0.73;56.39;99446.31;5053914;28;20029;-52
2023/03/14 01:25:44;;;;;;;6.32;2.97;;;;;;;-0.76;57.62;99420.16;5037294;28;20059;-63
2023/03/14 01:28:10;;;;;;;5.47;3.03;;;;;;;-0.80;57.29;99383.56;5053306;28;20053;-56
2023/03/14 01:30:35;;;;;;;5.40;3.15;;;;;;;-0.77;58.05;99386.91;5054903;28;20040;-55
2023/03/14 01:33:00;;;;;;;5.22;2.97;;;;;;;-0.77;59.01;99370.28;5054544;28;20388;-62
2023/03/14 01:35:26;;;;;;;3.75;2.60;;;;;;;-0.69;58.87;99380.50;5053698;28;20363;-55
2023/03/14 01:37:51;;;;;;;3.88;2.10;;;;;;;-0.61;58.63;99359.97;5054269;28;20043;-56
2023/03/14 01:40:17;;;;;;;4.97;2.88;;;;;;;-0.76;59.85;99357.06;5052143;28;20140;-56
2023/03/14 01:42:53;;;;;;;5.93;3.00;;;;;;;-0.65;59.74;99366.28;5054465;28;20053;-58
2023/03/14 01:45:56;;;;;;;6.88;2.92;;;;;;;-0.59;59.34;99358.13;5053513;28;20045;-56
2023/03/14 01:48:28;;;;;;;5.40;2.83;;;;;;;-0.72;60.70;99363.06;5049811;28;20456;-57
2023/03/14 01:50:54;;;;;;;4.95;3.00;;;;;;;-0.71;61.29;99329.75;5034524;28;20084;-56
2023/03/14 01:53:21;;;;;;;4.38;2.80;;;;;;;-0.73;62.09;99341.16;5034786;28;20069;-57
2023/03/14 01:55:48;;;;;;;5.28;2.65;;;;;;;-0.77;62.39;99334.31;5033829;28;20106;-58
2023/03/14 01:58:15;;;;;;;7.25;3.17;;;;;;;-0.74;62.66;99334.19;5034134;28;20083;-55
2023/03/14 02:00:41;;;;;;;5.55;3.03;;;;;;;-0.76;63.08;99329.94;5049551;28;20398;-58
2023/03/14 02:03:15;;;;;;;4.93;3.20;;;;;;;-0.73;63.13;99325.38;5053252;28;20086;-57
2023/03/14 02:05:42;;;;;;;6.53;3.03;;;;;;;-0.74;63.30;99334.19;5054163;28;20043;-53
2023/03/14 02:08:11;;;;;;;8.02;3.88;;;;;;;-0.67;63.20;99333.94;5053570;28;20071;-59
2023/03/14 02:10:43;;;;;;;6.43;3.53;;;;;;;-0.68;63.21;99333.09;5053667;28;20313;-56
2023/03/14 02:13:10;;;;;;;4.60;2.70;;;;;;;-0.79;62.80;99280.13;5053554;28;20394;-55
2023/03/14 02:15:37;;;;;;;7.30;3.15;;;;;;;-0.83;62.91;99282.00;5052302;28;20400;-55
2023/03/14 02:18:04;;;;;;;5.85;3.50;;;;;;;-0.71;64.08;99296.41;5053292;28;20036;-58
2023/03/14 02:20:48;;;;;;;4.57;2.90;;;;;;;-0.57;63.28;99287.94;5053370;28;20037;-61
2023/03/14 02:23:16;;;;;;;7.22;3.67;;;;;;;-0.63;63.74;99314.50;5043091;28;20116;-57
2023/03/14 02:26:28;;;;;;;5.15;3.10;;;;;;;-0.53;64.05;99315.78;5034113;28;20029;-56
2023/03/14 02:28:54;;;;;;;6.38;3.60;;;;;;;-0.47;63.88;99281.38;5033452;28;20090;-57
2023/03/14 02:31:22;;;;;;;6.10;3.30;;;;;;;-0.66;64.58;99241.84;5047690;28;20476;-56
2023/03/14 02:33:47;;;;;;;9.23;3.67;;;;;;;-0.49;64.92;99256.03;5052940;28;20064;-59
2023/03/14 02:36:14;;;;;;;6.47;3.58;;;;;;;-0.47;65.42;99248.94;5052725;28;20117;-53
2023/03/14 02:38:55;;;;;;;6.38;4.00;;;;;;;-0.33;65.19;99251.81;5052861;28;20404;-62
2023/03/14 02:41:22;;;;;;;6.32;3.78;;;;;;;-0.39;65.35;99243.34;5053320;28;20128;-55
2023/03/14 02:43:47;;;;;;;5.97;3.78;;;;;;;-0.68;66.20;99203.41;5052077;28;20040;-55
2023/03/14 02:46:17;;;;;;;6.47;4.20;;;;;;;-0.41;65.52;99234.66;5053273;28;20028;-55
2023/03/14 02:49:01;;;;;;;5.22;3.83;;;;;;;-0.33;65.48;99224.63;5050535;28;20470;-58
2023/03/14 02:51:27;;;;;;;5.65;3.30;;;;;;;-0.30;65.76;99249.03;5053056;28;20130;-56
2023/03/14 02:53:53;;;;;;;5.75;3.65;;;;;;;-0.31;65.21;99221.03;5052701;28;20156;-54
2023/03/14 02:56:18;;;;;;;5.57;3.75;;;;;;;-0.40;66.31;99210.06;5051572;28;20405;-56
2023/03/14 02:58:43;;;;;;;6.75;3.92;;;;;;;-0.46;66.76;99227.84;5053221;28;20443;-55
2023/03/14 03:01:09;;;;;;;4.93;3.67;;;;;;;-0.40;66.70;99221.44;5053020;28;20467;-59
2023/03/14 03:03:35;;;;;;;5.45;4.00;;;;;;;-0.37;67.36;99230.97;5040077;28;20021;-59
2023/03/14 03:06:00;;;;;;;5.28;4.07;;;;;;;-0.35;67.28;99242.28;5032132;28;20132;-60
2023/03/14 03:08:27;;;;;;;8.48;4.28;;;;;;;-0.30;66.85;99251.66;5033282;28;20095;-56
2023/03/14 03:10:53;;;;;;;4.72;3.80;;;;;;;-0.23;66.88;99240.88;5032674;28;20361;-62
2023/03/14 03:13:19;;;;;;;8.45;3.70;;;;;;;-0.26;67.86;99235.75;5032194;28;20041;-58
2023/03/14 03:15:45;;;;;;;6.90;4.43;;;;;;;-0.24;67.92;99228.63;5015425;28;20033;-53
2023/03/14 03:18:11;;;;;;;7.03;4.53;;;;;;;-0.38;67.22;99177.50;5041520;28;20041;-58
2023/03/14 03:20:36;;;;;;;7.35;4.43;;;;;;;-0.16;67.67;99240.53;5032278;28;20163;-55
2023/03/14 03:23:02;;;;;;;6.70;4.40;;;;;;;-0.54;67.24;99137.06;5032723;28;20041;-57
2023/03/14 03:25:28;;;;;;;6.50;4.38;;;;;;;-0.06;67.68;99214.63;5032449;28;20040;-56
2023/03/14 03:27:54;;;;;;;5.57;4.05;;;;;;;0.00;67.35;99202.97;5031772;28;20468;-58
2023/03/14 03:30:20;;;;;;;6.95;3.97;;;;;;;0.08;67.42;99181.53;5032760;28;20064;-58
2023/03/14 03:32:45;;;;;;;5.63;4.32;;;;;;;0.09;67.44;99180.59;5031458;28;20464;-56
2023/03/14 03:35:11;;;;;;;5.85;4.32;;;;;;;0.08;67.54;99171.00;5048147;28;20025;-58
2023/03/14 03:37:37;;;;;;;6.00;4.07;;;;;;;0.12;68.07;99164.66;5051590;28;20214;-57
2023/03/14 03:40:05;;;;;;;8.77;4.32;;;;;;;0.23;67.31;99157.13;5052746;28;20040;-56
2023/03/14 03:42:32;;;;;;;5.90;4.65;;;;;;;0.28;67.29;99159.53;5050793;28;20049;-58
2023/03/14 03:44:59;;;;;;;6.20;4.30;;;;;;;0.32;67.37;99140.00;5050993;28;20421;-51
2023/03/14 03:47:24;;;;;;;6.90;4.40;;;;;;;0.33;67.51;99151.38;5051645;28;20332;-53
2023/03/14 03:49:50;;;;;;;8.40;4.53;;;;;;;0.38;67.59;99141.50;5051831;28;20032;-56
2023/03/14 03:52:15;;;;;;;8.70;4.80;;;;;;;0.24;67.38;99102.66;5051267;28;20033;-56
2023/03/14 03:54:41;;;;;;;8.57;4.80;;;;;;;0.21;67.90;99102.81;5052118;28;20087;-62
2023/03/14 03:57:06;;;;;;;6.13;4.18;;;;;;;0.53;66.72;99116.16;5041386;28;20029;-59
2023/03/14 03:59:32;;;;;;;8.65;4.80;;;;;;;0.53;67.27;99131.97;5031022;28;20341;-58
2023/03/14 04:01:57;;;;;;;8.13;4.95;;;;;;;0.53;67.92;99147.78;5036630;28;20406;-58
2023/03/14 04:04:23;;;;;;;5.30;4.50;;;;;;;0.55;67.69;99125.69;5039469;28;20124;-58
2023/03/14 04:06:48;;;;;;;5.65;4.28;;;;;;;0.59;68.51;99125.53;5032224;28;20440;-54
2023/03/14 04:09:14;;;;;;;6.75;4.63;;;;;;;0.69;68.06;99113.59;5032289;28;20342;-56
2023/03/14 04:11:39;;;;;;;6.65;4.80;;;;;;;0.60;68.60;99092.97;5036268;28;20209;-59
2023/03/14 04:14:05;;;;;;;6.80;4.22;;;;;;;0.70;69.07;99110.03;5036168;28;20520;-61
2023/03/14 04:16:33;;;;;;;8.52;4.53;;;;;;;0.83;68.48;99112.88;5039452;28;20131;-56
2023/03/14 04:19:00;;;;;;;5.28;4.35;;;;;;;0.90;68.69;99101.09;5046350;28;20061;-56
2023/03/14 04:21:25;;;;;;;9.27;4.68;;;;;;;0.96;68.79;99118.38;5035956;28;20061;-57
2023/03/14 04:23:51;;;;;;;7.90;4.65;;;;;;;1.06;68.42;99109.03;5036283;28;20120;-66
2023/03/14 04:26:18;;;;;;;7.18;4.90;;;;;;;1.11;68.28;99107.03;5036105;28;20040;-58
2023/03/14 04:28:44;;;;;;;6.30;4.40;;;;;;;1.16;68.54;99095.38;5035063;28;20037;-58
2023/03/14 04:31:12;;;;;;;9.95;4.57;;;;;;;1.20;68.28;99089.84;5035444;28;20029;-58
2023/03/14 04:33:38;;;;;;;6.57;4.35;;;;;;;1.29;68.44;99088.50;5035022;28;20095;-57
2023/03/14 04:36:05;;;;;;;6.18;4.35;;;;;;;1.32;68.50;99084.84;5035942;28;20033;-59
2023/03/14 04:38:30;;;;;;;8.57;4.97;;;;;;;1.34;68.48;99059.25;5050381;28;20083;-58
2023/03/14 04:40:56;;;;;;;6.93;4.68;;;;;;;1.47;68.25;99078.75;5054159;28;20406;-59
2023/03/14 04:43:22;;;;;;;8.23;5.00;;;;;;;1.50;67.93;99069.78;5041617;28;20410;-64
2023/03/14 04:45:47;;;;;;;8.43;4.97;;;;;;;1.56;67.60;99078.22;5036322;28;20045;-59
2023/03/14 04:48:13;;;;;;;8.07;4.85;;;;;;;1.52;67.93;99041.53;5035067;28;20033;-57
2023/03/14 04:50:39;;;;;;;8.05;4.78;;;;;;;1.65;68.24;99068.09;5035142;28;20083;-57
2023/03/14 04:53:05;;;;;;;8.82;4.95;;;;;;;1.72;68.19;99056.25;5034023;28;20029;-56
2023/03/14 04:55:32;;;;;;;7.90;4.88;;;;;;;1.77;68.32;99062.13;5035616;28;20108;-59
2023/03/14 04:57:58;;;;;;;9.63;4.93;;;;;;;1.78;68.83;99053.28;5053261;28;20111;-57
2023/03/14 05:00:23;;;;;;;6.18;4.63;;;;;;;1.82;68.14;99049.50;5054768;28;20463;-62
2023/03/14 05:02:49;;;;;;;9.93;4.65;;;;;;;1.95;67.25;99035.63;5054676;28;20033;-54
2023/03/14 05:05:14;;;;;;;8.32;4.45;;;;;;;1.93;67.76;99040.13;5044595;28;20372;-54
2023/03/14 05:07:40;;;;;;;10.18;5.00;;;;;;;1.96;67.84;99039.97;5034936;28;20053;-55
2023/03/14 05:10:05;;;;;;;6.40;4.80;;;;;;;1.92;68.27;99026.09;5034843;28;20110;-56
2023/03/14 05:12:31;;;;;;;7.38;5.10;;;;;;;2.04;68.30;99016.59;5034937;28;20068;-59
2023/03/14 05:14:56;;;;;;;8.25;5.00;;;;;;;2.06;68.25;99014.72;5035520;28;20077;-57
2023/03/14 05:17:22;;;;;;;8.43;4.93;;;;;;;2.15;68.11;99010.69;5034838;28;20428;-56
2023/03/14 05:19:47;;;;;;;8.13;4.82;;;;;;;2.24;67.91;99012.78;5049125;28;20029;-57
2023/03/14 05:22:13;;;;;;;6.70;4.63;;;;;;;2.30;67.72;99019.50;5040600;28;20034;-57
2023/03/14 05:24:38;;;;;;;10.50;5.18;;;;;;;2.29;67.92;99016.03;5041293;28;20373;-56
2023/03/14 05:27:04;;;;;;;9.98;4.95;;;;;;;2.41;67.92;99022.34;5041461;28;20498;-58
2023/03/14 05:29:30;;;;;;;8.70;4.90;;;;;;;2.49;67.64;99021.88;5054548;28;20116;-59
2023/03/14 05:31:55;;;;;;;6.40;4.22;;;;;;;2.58;67.49;99020.47;5054183;28;20078;-61
2023/03/14 05:34:21;;;;;;;6.85;4.35;;;;;;;2.70;67.10;99032.97;5053108;28;20029;-56
2023/03/14 05:36:46;;;;;;;7.97;4.38;;;;;;;2.63;66.87;99028.13;5053750;28;20044;-58
2023/03/14 05:39:11;;;;;;;8.30;4.90;;;;;;;2.53;66.67;99001.41;5051896;28;20029;-58
2023/03/14 05:41:37;;;;;;;7.90;4.65;;;;;;;2.71;66.30;99034.66;5053342;28;20052;-63
2023/03/14 05:44:03;;;;;;;8.70;4.70;;;;;;;2.73;66.63;99030.13;5049749;28;20097;-59
2023/03/14 05:46:30;;;;;;;7.97;4.70;;;;;;;2.56;67.29;99001.22;5034338;28;20033;-56
2023/03/14 05:48:57;;;;;;;6.93;4.35;;;;;;;2.85;66.71;99031.16;5032339;28;20112;-60
2023/03/14 05:51:23;;;;;;;7.57;4.50;;;;;;;2.77;66.89;99030.75;5033943;28;20033;-57
2023/03/14 05:53:48;;;;;;;7.65;4.50;;;;;;;2.84;66.72;99037.41;4999616;28;20082;-59
2023/03/14 05:56:14;;;;;;;8.02;4.13;;;;;;;2.79;66.67;99041.25;5038635;28;20028;-56
2023/03/14 05:58:39;;;;;;;10.23;4.88;;;;;;;2.67;66.84;99013.78;5043007;28;20364;-57
2023/03/14 06:01:05;;;;;;;9.10;4.70;;;;;;;2.86;67.09;99056.66;5033942;28;20109;-54
2023/03/14 06:03:32;;;;;;;12.18;4.60;;;;;;;2.82;66.63;99046.34;5036594;28;20029;-54
2023/03/14 06:05:57;;;;;;;9.18;4.72;;;;;;;2.92;66.60;99052.78;5052738;28;20119;-57
2023/03/14 06:08:23;;;;;;;10.82;4.47;;;;;;;2.96;66.20;99041.09;5034420;28;20144;-54
2023/03/14 06:10:48;;;;;;;10.20;4.43;;;;;;;3.04;66.19;99045.03;5033617;28;20053;-57
2023/03/14 06:13:15;;;;;;;9.63;4.43;;;;;;;3.12;65.98;99035.69;5052250;28;20021;-56
2023/03/14 06:15:41;;;;;;;9.30;4.95;;;;;;;3.23;65.49;99031.50;5053929;28;20041;-57
2023/03/14 06:18:06;;;;;;;6.90;3.97;;;;;;;3.24;65.09;99004.97;5052887;28;20482;-53
2023/03/14 06:20:33;;;;;;;9.30;4.40;;;;;;;3.37;64.82;99017.41;5048194;28;20029;-53
2023/03/14 06:22:58;;;;;;;8.63;4.60;;;;;;;3.46;64.21;99011.53;5053309;28;20025;-58
2023/03/14 06:25:24;;;;;;;8.02;4.55;;;;;;;3.51;64.06;99024.47;5053567;28;20506;-54
2023/03/14 06:27:49;;;;;;;6.75;4.35;;;;;;;3.54;63.85;99013.69;5052114;28;20041;-53
2023/03/14 06:30:15;;;;;;;5.63;4.40;;;;;;;3.38;63.93;98972.31;5044239;28;20136;-54
2023/03/14 06:32:40;;;;;;;9.35;4.10;;;;;;;3.45;63.67;98970.97;5032835;28;20025;-59
2023/03/14 06:35:06;;;;;;;8.57;4.43;;;;;;;3.57;63.73;99003.72;5049965;28;20033;-56
2023/03/14 06:37:31;;;;;;;7.75;4.32;;;;;;;3.72;63.00;99014.28;5053209;28;20029;-51
2023/03/14 06:39:57;;;;;;;6.82;4.30;;;;;;;3.76;62.95;99007.84;5053926;28;20029;-62
2023/03/14 06:42:22;;;;;;;7.10;4.28;;;;;;;3.77;62.37;98982.22;5053483;28;20080;-56
2023/03/14 06:44:48;;;;;;;6.78;4.30;;;;;;;3.81;62.57;99010.19;5051910;28;20123;-54
2023/03/14 06:47:14;;;;;;;7.13;4.28;;;;;;;3.83;61.85;98998.53;5053036;28;20083;-55
2023/03/14 06:49:39;;;;;;;6.60;3.85;;;;;;;3.66;61.36;98959.09;5052639;28;20041;-52
2023/03/14 06:52:05;;;;;;;8.35;3.90;;;;;;;3.86;62.19;99008.94;5052287;28;20061;-54
2023/03/14 06:54:30;;;;;;;10.15;4.50;;;;;;;3.96;61.59;98998.56;5051141;28;20021;-57
2023/03/14 06:56:55;;;;;;;6.45;3.95;;;;;;;4.03;61.01;99004.31;5033342;28;20111;-57
2023/03/14 06:59:21;;;;;;;6.05;3.85;;;;;;;4.15;60.86;99010.56;5033264;28;20037;-56
2023/03/14 07:01:47;;;;;;;8.57;3.92;;;;;;;4.21;61.06;99011.97;5034064;28;20053;-58
2023/03/14 07:04:13;;;;;;;8.05;4.00;;;;;;;4.27;60.33;99004.47;5032208;28;20029;-56
2023/03/14 07:06:39;;;;;;;6.82;4.03;;;;;;;4.31;60.39;99003.31;5033059;28;20071;-61
2023/03/14 07:09:05;;;;;;;9.32;3.92;;;;;;;4.38;59.79;99008.19;5032984;28;20087;-57
2023/03/14 07:11:31;;;;;;;8.35;4.47;;;;;;;4.51;60.10;98997.59;5032767;28;20033;-51
2023/03/14 07:13:57;;;;;;;9.25;3.63;;;;;;;4.62;59.70;99008.31;5032874;28;20107;-55
2023/03/14 07:16:22;;;;;;;11.40;4.20;;;;;;;4.71;58.67;98998.88;5032426;28;20496;-53
2023/03/14 07:18:49;;;;;;;7.30;3.80;;;;;;;4.66;58.29;99006.28;5031964;28;20105;-54
2023/03/14 07:21:14;;;;;;;11.02;4.30;;;;;;;4.53;58.63;99006.28;5038425;28;20085;-52
2023/03/14 07:23:40;;;;;;;7.40;3.90;;;;;;;4.56;58.64;99020.19;5051648;28;20053;-52
2023/03/14 07:26:06;;;;;;;7.50;3.80;;;;;;;4.58;58.26;99020.06;5051999;28;20055;-52
2023/03/14 07:28:31;;;;;;;7.63;3.88;;;;;;;4.62;58.56;99026.00;5052738;28;20032;-49
2023/03/14 07:30:57;;;;;;;11.23;4.18;;;;;;;4.40;58.33;98993.88;5051630;28;20032;-52
2023/03/14 07:33:22;;;;;;;10.20;4.20;;;;;;;4.61;58.58;99011.91;5051154;28;20036;-49
2023/03/14 07:35:48;;;;;;;10.13;3.67;;;;;;;4.66;58.21;99023.03;5049059;28;20047;-51
2023/03/14 07:38:15;;;;;;;10.43;4.18;;;;;;;4.76;58.69;99023.25;5049779;28;20360;-55
2023/03/14 07:40:40;;;;;;;7.70;4.10;;;;;;;4.86;57.55;99018.16;5052020;28;20174;-54
2023/03/14 07:43:06;;;;;;;7.65;4.03;;;;;;;4.62;57.69;98952.63;5044771;28;20119;-49
2023/03/14 07:45:31;;;;;;;9.27;4.53;;;;;;;4.92;58.08;99025.69;5046273;28;20033;-52
2023/03/14 07:47:57;;;;;;;7.18;4.13;;;;;;;4.95;57.78;99017.50;5051031;28;20443;-53
2023/03/14 07:50:24;;;;;;;6.57;4.00;;;;;;;4.82;57.97;99020.16;5050332;28;20036;-58
2023/03/14 07:52:49;;;;;;;6.72;3.60;;;;;;;4.83;57.86;99016.56;5032984;28;20036;-53
2023/03/14 07:55:15;;;;;;;8.00;3.85;;;;;;;4.91;57.35;99023.13;5031535;28;20030;-55
2023/03/14 07:57:41;;;;;;;6.15;4.10;;;;;;;4.85;57.64;99009.34;5032131;28;20034;-48
2023/03/14 08:00:07;;;;;;;8.07;4.22;;;;;;;4.72;57.33;98977.53;5044028;28;20033;-50
2023/03/14 08:02:33;;;;;;;10.82;4.25;;;;;;;4.81;57.09;98976.03;5051843;28;20495;-52
2023/03/14 08:04:58;;;;;;;9.23;4.40;;;;;;;5.03;57.03;99009.84;5035702;28;20037;-52
2023/03/14 08:07:24;;;;;;;7.57;4.20;;;;;;;5.18;56.76;99007.06;5031971;28;20034;-48
2023/03/14 08:09:49;;;;;;;4.82;3.30;;;;;;;5.34;56.08;99014.78;5032167;28;20029;-51
2023/03/14 08:12:16;;;;;;;10.77;3.75;;;;;;;5.30;56.65;99038.06;5031306;28;20083;-53
2023/03/14 08:14:41;;;;;;;8.35;4.32;;;;;;;5.23;56.63;99034.13;5043305;28;20518;-49
2023/03/14 08:17:08;;;;;;;6.53;3.78;;;;;;;5.28;56.52;99033.81;5051814;28;20037;-51
2023/03/14 08:19:33;;;;;;;7.03;3.60;;;;;;;5.27;56.94;99030.28;5051588;28;20044;-49
2023/03/14 08:21:59;;;;;;;8.45;4.22;;;;;;;5.26;56.83;99035.72;5037417;28;20368;-52
2023/03/14 08:24:24;;;;;;;8.20;3.92;;;;;;;5.27;57.23;99038.25;5031742;28;20037;-55
2023/03/14 08:26:50;;;;;;;8.93;4.13;;;;;;;5.35;56.97;99042.19;5031595;28;20225;-49
2023/03/14 08:29:15;;;;;;;7.53;4.13;;;;;;;5.38;57.37;99066.69;5044273;28;20025;-47
2023/03/14 08:31:41;;;;;;;11.57;4.22;;;;;;;5.46;56.95;99039.59;5051232;28;20178;-52
2023/03/14 08:34:07;;;;;;;10.88;4.65;;;;;;;5.51;57.36;99039.28;5051086;28;20036;-48
2023/03/14 08:36:33;;;;;;;8.25;4.13;;;;;;;5.53;56.92;99030.22;5051090;28;20025;-52
2023/03/14 08:38:59;;;;;;;8.50;4.72;;;;;;;5.50;57.49;99038.41;5051429;28;20454;-46
2023/03/14 08:41:24;;;;;;;8.93;4.50;;;;;;;5.49;57.44;99036.72;5050777;28;20448;-51
2023/03/14 08:43:50;;;;;;;7.78;4.65;;;;;;;5.55;56.48;99036.28;5039547;28;20033;-52
2023/03/14 08:46:15;;;;;;;9.18;4.68;;;;;;;5.55;56.82;99038.06;5031474;28;20077;-49
2023/03/14 08:48:41;;;;;;;8.35;4.57;;;;;;;5.48;57.20;99045.63;5036403;28;20359;-53
2023/03/14 08:51:14;;;;;;;9.63;5.00;;;;;;;5.46;56.87;99028.97;5050661;28;20079;-51
2023/03/14 08:53:40;;;;;;;8.65;4.68;;;;;;;5.45;56.74;99040.56;5031744;28;20033;-50
2023/03/14 08:56:06;;;;;;;9.55;5.60;;;;;;;5.24;57.10;99017.25;5032808;28;20075;-56
2023/03/14 08:58:32;;;;;;;10.10;4.90;;;;;;;5.45;56.33;99045.84;5034902;28;20037;-59
2023/03/14 09:00:58;;;;;;;6.80;4.68;;;;;;;5.43;55.83;99022.09;5042145;28;20033;-56
2023/03/14 09:03:25;;;;;;;10.82;5.03;;;;;;;5.57;55.71;99030.84;5037146;28;20029;-53
2023/03/14 09:05:51;;;;;;;9.65;5.25;;;;;;;5.46;55.50;98990.00;5044835;28;20405;-56
2023/03/14 09:08:16;;;;;;;11.05;4.97;;;;;;;5.71;55.28;99008.59;5043259;28;20033;-50
2023/03/14 09:10:42;;;;;;;12.38;5.35;;;;;;;5.78;54.91;99015.13;5043397;28;20352;-53
2023/03/14 09:13:07;;;;;;;7.45;4.70;;;;;;;5.79;54.21;99008.91;5035265;28;20060;-49
2023/03/14 09:15:33;;;;;;;7.82;4.30;;;;;;;5.74;53.68;98977.34;5035615;28;20033;-53
2023/03/14 09:17:59;;;;;;;8.50;4.65;;;;;;;6.01;53.40;99023.25;5034467;28;20048;-53
2023/03/14 09:20:24;;;;;;;10.15;4.85;;;;;;;6.04;53.45;99020.38;5053781;28;20029;-56
2023/03/14 09:22:50;;;;;;;7.78;4.25;;;;;;;5.89;53.08;99001.91;5054752;28;20516;-56
2023/03/14 09:25:15;;;;;;;7.43;3.88;;;;;;;6.12;52.47;99025.97;5054877;28;20082;-52
2023/03/14 09:27:41;;;;;;;6.70;4.20;;;;;;;6.12;52.32;99039.25;5053661;28;20039;-51
2023/03/14 09:30:07;;;;;;;5.88;4.28;;;;;;;6.11;52.61;99026.94;5052922;28;20033;-58
2023/03/14 09:32:33;;;;;;;9.77;4.55;;;;;;;6.07;52.56;99024.59;5055016;28;20090;-56
2023/03/14 09:34:58;;;;;;;11.07;4.60;;;;;;;6.13;52.61;99030.31;5054600;28;20028;-50
2023/03/14 09:37:24;;;;;;;8.27;4.57;;;;;;;6.20;52.33;99056.41;5053762;28;20031;-56
2023/03/14 09:39:49;;;;;;;11.18;4.72;;;;;;;6.26;51.93;99026.72;5053176;28;20059;-51
2023/03/14 09:42:18;;;;;;;9.95;4.78;;;;;;;6.27;52.25;99031.06;5053751;28;20128;-55
2023/03/14 09:44:53;;;;;;;10.73;4.53;;;;;;;6.34;52.59;99019.03;5053931;28;20067;-53
2023/03/14 09:47:19;;;;;;;7.03;4.22;;;;;;;6.37;51.57;99041.84;5045100;28;20338;-56
2023/03/14 09:49:45;;;;;;;11.80;4.60;;;;;;;6.30;51.61;99037.00;5042826;28;20033;-55
2023/03/14 09:52:19;;;;;;;11.20;4.95;;;;;;;6.41;51.81;99035.38;5043175;28;20032;-57
2023/03/14 09:54:49;;;;;;;8.30;4.40;;;;;;;6.43;51.50;99042.25;5042693;28;20127;-54
2023/03/14 09:57:18;;;;;;;9.75;4.53;;;;;;;6.51;50.69;99039.00;5047894;28;20029;-49
2023/03/14 09:59:48;;;;;;;8.13;4.85;;;;;;;6.31;51.04;99001.47;5040175;28;20044;-48
2023/03/14 10:02:23;;;;;;;7.72;4.20;;;;;;;6.56;51.53;99041.31;5033478;28;20036;-50
2023/03/14 10:04:50;;;;;;;8.85;4.65;;;;;;;6.60;50.72;99032.97;5038930;28;20034;-52
2023/03/14 10:07:21;;;;;;;9.00;3.72;;;;;;;6.58;50.81;99031.41;5033438;28;20037;-53
2023/03/14 10:09:50;;;;;;;9.90;4.80;;;;;;;6.60;50.57;99042.78;5033294;28;20049;-49
2023/03/14 10:12:18;;;;;;;10.43;4.50;;;;;;;6.63;51.46;99034.56;5032630;28;20341;-52
2023/03/14 10:14:49;;;;;;;11.40;4.95;;;;;;;6.59;52.38;99028.63;5034061;28;20036;-50
2023/03/14 10:17:17;;;;;;;8.00;4.50;;;;;;;6.51;52.46;99009.75;5015591;28;20029;-52
2023/03/14 10:19:57;;;;;;;13.25;4.90;;;;;;;6.67;52.54;99003.25;5036576;28;20036;-48
2023/03/14 10:22:30;;;;;;;7.05;4.82;;;;;;;6.61;52.72;99008.06;5042865;28;20157;-50
2023/03/14 10:24:59;;;;;;;6.20;4.40;;;;;;;6.42;52.33;98974.06;5043446;28;20022;-49
2023/03/14 10:27:34;;;;;;;8.75;4.32;;;;;;;6.59;52.15;99002.00;5037691;28;20028;-47
2023/03/14 10:30:06;;;;;;;9.10;5.00;;;;;;;6.64;52.24;99006.16;5044807;28;20025;-54
2023/03/14 10:32:35;;;;;;;10.93;5.07;;;;;;;6.60;52.45;99019.66;5043375;28;20025;-61
2023/03/14 10:35:13;;;;;;;9.13;5.43;;;;;;;6.71;52.38;99029.47;5056168;28;20093;-51
2023/03/14 10:37:59;;;;;;;12.55;5.10;;;;;;;6.73;51.90;99019.56;5052661;28;20040;-50
2023/03/14 10:40:31;;;;;;;10.10;5.00;;;;;;;6.70;51.74;99017.16;5034057;28;20095;-53
2023/03/14 10:43:03;;;;;;;8.10;4.43;;;;;;;6.71;51.18;99004.72;5033703;28;20049;-51
2023/03/14 10:45:36;;;;;;;10.60;5.05;;;;;;;6.78;51.20;98999.75;5038681;28;20052;-57
2023/03/14 10:48:14;;;;;;;9.45;4.70;;;;;;;6.97;50.89;98986.66;5046956;28;20147;-60
2023/03/14 10:50:48;;;;;;;11.20;4.82;;;;;;;7.07;50.55;98988.63;5037973;28;20390;-54
2023/03/14 10:53:17;;;;;;;8.45;4.63;;;;;;;7.12;50.06;98989.97;5044631;28;20456;-57
2023/03/14 10:55:45;;;;;;;8.88;4.65;;;;;;;7.20;49.73;98991.97;5039032;28;20035;-52
2023/03/14 10:58:30;;;;;;;6.97;4.60;;;;;;;7.33;49.80;98987.38;5044837;28;20116;-52
2023/03/14 11:01:07;;;;;;;7.43;4.80;;;;;;;7.35;49.45;98997.06;5031922;28;20110;-53
2023/03/14 11:03:36;;;;;;;7.85;4.60;;;;;;;7.14;49.38;98945.44;5043364;28;20033;-70
2023/03/14 11:06:36;;;;;;;7.97;4.47;;;;;;;7.59;49.31;98986.22;5036002;28;20461;-52
2023/03/14 11:09:15;;;;;;;7.72;4.90;;;;;;;7.60;48.56;98938.16;5044160;28;20453;-55
2023/03/14 11:11:46;;;;;;;7.70;4.28;;;;;;;8.05;47.30;98960.25;5039505;28;20026;-56
2023/03/14 11:14:14;;;;;;;7.70;4.20;;;;;;;8.13;46.95;98963.09;5037113;28;20060;-54
2023/03/14 11:16:49;;;;;;;9.45;4.63;;;;;;;8.36;46.78;98946.13;5051786;28;20356;-50
2023/03/14 11:19:57;;;;;;;7.85;4.43;;;;;;;8.60;45.91;98952.06;5050984;28;20455;-52
2023/03/14 11:22:43;;;;;;;6.43;4.18;;;;;;;8.73;45.74;98959.84;5022250;28;20040;-51
2023/03/14 11:25:21;;;;;;;13.30;4.63;;;;;;;8.70;45.39;98991.28;5031778;28;20494;-53
2023/03/14 11:27:53;;;;;;;7.35;4.90;;;;;;;8.48;45.51;98988.63;5045531;28;20039;-54
2023/03/14 11:30:50;;;;;;;7.78;4.22;;;;;;;8.41;46.33;98982.09;5035114;28;20084;-57
2023/03/14 11:33:21;;;;;;;8.15;4.05;;;;;;;8.17;46.15;98983.19;5033212;28;20037;-55
2023/03/14 11:36:09;;;;;;;8.02;4.30;;;;;;;8.15;46.60;98994.97;5041790;28;20071;-56
2023/03/14 11:38:34;;;;;;;9.88;4.97;;;;;;;7.86;45.72;98959.13;5043995;28;20119;-55
2023/03/14 11:41:00;;;;;;;9.82;4.78;;;;;;;7.97;46.15;98987.53;5032738;28;20445;-57